createdAt,value
2019-05-11T00:00:02.026Z,71.37
2019-05-11T00:02:34.134Z,71.54
2019-05-11T00:05:04.588Z,71.65
2019-05-11T00:07:35.077Z,71.68
2019-05-11T00:10:05.752Z,71.39
2019-05-11T00:12:36.301Z,71.60
2019-05-11T00:15:07.012Z,71.98
2019-05-11T00:17:37.401Z,72.47
2019-05-11T00:20:08.116Z,72.91
2019-05-11T00:22:38.500Z,73.16
2019-05-11T00:28:11.607Z,72.76
2019-05-11T00:30:43.633Z,72.93
2019-05-11T00:33:33.494Z,73.01
2019-05-11T00:36:03.975Z,73.23
2019-05-11T00:38:34.356Z,73.80
2019-05-11T00:41:05.073Z,74.32
2019-05-11T00:43:35.469Z,75.24
2019-05-11T00:46:25.227Z,75.82
2019-05-11T00:49:15.039Z,76.37
2019-05-11T00:51:45.427Z,77.27
2019-05-11T00:54:35.243Z,77.67
2019-05-11T00:57:25.003Z,77.89
2019-05-11T00:59:55.404Z,78.11
2019-05-11T01:02:25.856Z,78.47
2019-05-11T01:04:56.290Z,78.71
2019-05-11T01:07:26.644Z,78.52
2019-05-11T01:09:56.994Z,78.60
2019-05-11T01:12:27.454Z,78.77
2019-05-11T01:14:57.893Z,78.95
2019-05-11T01:17:29.938Z,79.49
2019-05-11T01:20:01.078Z,79.94
2019-05-11T01:22:31.607Z,80.41
2019-05-11T01:25:01.987Z,81.08
2019-05-11T01:27:32.329Z,81.26
2019-05-11T01:30:22.093Z,81.55
2019-05-11T01:32:52.479Z,81.45
2019-05-11T01:35:22.912Z,80.93
2019-05-11T01:37:53.276Z,80.60
2019-05-11T01:40:23.655Z,80.52
2019-05-11T01:42:53.996Z,80.58
2019-05-11T01:45:24.402Z,80.54
2019-05-11T01:47:54.743Z,80.73
2019-05-11T01:50:25.121Z,81.08
2019-05-11T01:52:55.465Z,81.19
2019-05-11T01:55:25.839Z,81.31
2019-05-11T01:57:56.271Z,81.36
2019-05-11T02:00:26.685Z,81.45
2019-05-11T02:02:57.045Z,81.74
2019-05-11T02:05:46.840Z,82.18
2019-05-11T02:08:17.184Z,82.43
2019-05-11T02:11:15.327Z,82.73
2019-05-11T02:13:58.424Z,82.50
2019-05-11T02:16:28.812Z,82.32
2019-05-11T02:18:59.154Z,82.10
2019-05-11T02:21:29.526Z,82.10
2019-05-11T02:23:59.900Z,82.16
2019-05-11T02:26:49.674Z,82.04
2019-05-11T02:29:20.086Z,81.77
2019-05-11T02:31:50.610Z,81.66
2019-05-11T02:34:21.005Z,81.69
2019-05-11T02:36:51.445Z,81.64
2019-05-11T02:39:21.801Z,81.80
2019-05-11T02:42:11.568Z,81.85
2019-05-11T02:45:01.418Z,81.65
2019-05-11T02:47:31.909Z,81.08
2019-05-11T02:50:21.715Z,80.85
2019-05-11T02:52:52.181Z,80.46
2019-05-11T02:55:22.609Z,80.14
2019-05-11T02:57:52.993Z,80.69
2019-05-11T03:03:25.939Z,81.14
2019-05-11T03:06:15.706Z,81.06
2019-05-11T03:12:09.790Z,81.83
2019-05-11T03:14:59.559Z,81.87
2019-05-11T03:20:28.707Z,82.03
2019-05-11T03:23:00.700Z,82.28
2019-05-11T03:25:31.087Z,82.29
2019-05-11T03:28:01.451Z,82.38
2019-05-11T03:30:31.820Z,82.07
2019-05-11T03:33:02.274Z,82.03
2019-05-11T03:35:52.050Z,82.04
2019-05-11T03:38:41.855Z,82.01
2019-05-11T03:41:31.654Z,81.85
2019-05-11T03:44:02.032Z,81.60
2019-05-11T03:46:51.844Z,81.51
2019-05-11T03:49:22.214Z,81.43
2019-05-11T03:52:12.003Z,80.91
2019-05-11T03:54:42.456Z,80.52
2019-05-11T03:57:12.832Z,80.52
2019-05-11T04:00:02.640Z,80.50
2019-05-11T04:02:32.999Z,80.47
2019-05-11T04:05:05.327Z,80.44
2019-05-11T04:07:35.784Z,80.41
2019-05-11T04:10:06.306Z,80.33
2019-05-11T04:12:36.793Z,80.17
2019-05-11T04:15:07.219Z,79.71
2019-05-11T04:17:37.652Z,79.75
2019-05-11T04:20:07.980Z,79.28
2019-05-11T04:22:57.806Z,78.69
2019-05-11T04:25:28.161Z,78.46
2019-05-11T04:28:17.948Z,78.29
2019-05-11T04:30:48.294Z,78.24
2019-05-11T04:33:18.975Z,78.25
2019-05-11T04:35:49.342Z,78.24
2019-05-11T04:38:19.791Z,77.99
2019-05-11T04:40:50.138Z,77.66
2019-05-11T04:43:22.233Z,77.32
2019-05-11T04:45:52.664Z,76.17
2019-05-11T04:48:23.040Z,75.35
2019-05-11T04:50:53.433Z,75.06
2019-05-11T04:53:23.801Z,74.75
2019-05-11T04:55:55.946Z,74.43
2019-05-11T04:58:26.354Z,74.00
2019-05-11T05:00:56.709Z,73.56
2019-05-11T05:03:47.508Z,73.16
2019-05-11T05:06:38.986Z,72.71
2019-05-11T05:09:21.001Z,72.35
2019-05-11T05:11:51.353Z,71.88
2019-05-11T05:14:21.741Z,71.07
2019-05-11T05:17:12.668Z,71.08
2019-05-11T05:19:43.036Z,70.82
2019-05-11T05:22:13.445Z,70.84
2019-05-11T05:24:43.900Z,70.68
2019-05-11T05:27:33.640Z,70.62
2019-05-11T05:30:04.149Z,70.52
2019-05-11T05:32:34.546Z,70.50
2019-05-11T05:38:07.101Z,71.07
2019-05-11T05:40:37.579Z,71.41
2019-05-11T05:43:08.057Z,72.05
2019-05-11T05:45:38.564Z,72.25
2019-05-11T05:48:09.032Z,72.65
2019-05-11T05:50:39.482Z,73.00
2019-05-11T05:53:09.950Z,73.23
2019-05-11T05:55:40.344Z,73.82
2019-05-11T05:58:12.415Z,74.07
2019-05-11T06:01:02.187Z,74.17
2019-05-11T06:03:52.000Z,74.07
2019-05-11T06:06:41.786Z,73.59
2019-05-11T06:09:12.162Z,73.56
2019-05-11T06:12:01.921Z,73.26
2019-05-11T06:14:32.327Z,72.48
2019-05-11T06:17:22.090Z,71.70
2019-05-11T06:23:14.493Z,69.45
2019-05-11T06:25:44.873Z,68.19
2019-05-11T06:28:15.364Z,67.83
2019-05-11T06:30:45.777Z,67.67
2019-05-11T06:33:17.818Z,67.57
2019-05-11T06:35:48.294Z,67.35
2019-05-11T06:38:30.552Z,66.78
2019-05-11T06:44:03.050Z,64.97
2019-05-11T06:46:35.085Z,64.07
2019-05-11T06:49:16.601Z,62.11
2019-05-11T06:51:47.024Z,61.04
2019-05-11T06:54:17.484Z,60.36
2019-05-11T06:56:47.843Z,58.97
2019-05-11T06:59:18.405Z,59.10
2019-05-11T07:01:48.753Z,59.35
2019-05-11T07:04:19.136Z,59.29
2019-05-11T07:07:08.904Z,59.40
2019-05-11T07:09:58.685Z,59.23
2019-05-11T07:12:48.458Z,59.29
2019-05-11T07:15:38.233Z,59.24
2019-05-11T07:18:08.606Z,58.03
2019-05-11T07:20:49.920Z,56.38
2019-05-11T07:23:22.540Z,54.81
2019-05-11T07:25:52.937Z,52.03
2019-05-11T07:28:23.293Z,50.85
2019-05-11T07:30:53.779Z,50.19
2019-05-11T07:33:43.527Z,49.19
2019-05-11T07:36:33.313Z,48.80
2019-05-11T07:42:02.000Z,48.18
2019-05-11T07:44:38.546Z,47.18
2019-05-11T07:47:18.647Z,47.03
2019-05-11T07:50:00.505Z,46.84
2019-05-11T07:52:30.875Z,47.09
2019-05-11T07:55:01.227Z,47.08
2019-05-11T07:57:51.008Z,46.91
2019-05-11T08:03:23.949Z,46.60
2019-05-11T08:05:54.316Z,46.55
2019-05-11T08:08:44.120Z,47.36
2019-05-11T08:11:14.465Z,46.92
2019-05-11T08:13:44.874Z,46.39
2019-05-11T08:16:15.281Z,45.41
2019-05-11T08:18:48.041Z,44.60
2019-05-11T08:21:38.812Z,44.22
2019-05-11T08:24:22.532Z,43.80
2019-05-11T08:26:52.897Z,43.32
2019-05-11T08:29:23.404Z,43.01
2019-05-11T08:31:54.648Z,43.37
2019-05-11T08:34:44.535Z,43.12
2019-05-11T08:37:34.306Z,42.08
2019-05-11T08:43:20.459Z,40.41
2019-05-11T08:46:10.281Z,40.72
2019-05-11T08:48:40.732Z,40.78
2019-05-11T08:51:11.141Z,41.14
2019-05-11T08:53:41.585Z,41.15
2019-05-11T08:56:13.320Z,41.31
2019-05-11T08:58:58.581Z,41.49
2019-05-11T09:01:33.527Z,42.02
2019-05-11T09:04:03.969Z,42.80
2019-05-11T09:06:53.761Z,43.10
2019-05-11T09:09:24.462Z,43.59
2019-05-11T09:11:54.898Z,43.67
2019-05-11T09:14:44.701Z,43.39
2019-05-11T09:17:15.102Z,43.07
2019-05-11T09:19:47.925Z,42.73
2019-05-11T09:22:38.156Z,42.34
2019-05-11T09:25:20.224Z,42.18
2019-05-11T09:27:50.683Z,42.28
2019-05-11T09:30:40.463Z,42.06
2019-05-11T09:33:12.636Z,42.00
2019-05-11T09:35:50.104Z,41.50
2019-05-11T09:38:20.562Z,41.48
2019-05-11T09:40:51.042Z,41.84
2019-05-11T09:43:21.494Z,41.19
2019-05-11T09:45:52.227Z,40.93
2019-05-11T09:48:34.814Z,40.94
2019-05-11T09:51:07.664Z,40.41
2019-05-11T09:53:58.754Z,39.69
2019-05-11T09:56:34.549Z,39.35
2019-05-11T09:59:24.344Z,38.73
2019-05-11T10:01:54.833Z,38.06
2019-05-11T10:04:25.381Z,37.23
2019-05-11T10:06:55.825Z,36.08
2019-05-11T10:09:28.061Z,35.72
2019-05-11T10:12:09.292Z,35.52
2019-05-11T10:14:39.694Z,34.55
2019-05-11T10:17:10.128Z,35.09
2019-05-11T10:19:42.209Z,35.15
2019-05-11T10:22:13.044Z,34.58
2019-05-11T10:24:47.582Z,34.35
2019-05-11T10:27:38.362Z,34.13
2019-05-11T10:30:20.084Z,33.44
2019-05-11T10:33:09.946Z,33.21
2019-05-11T10:35:40.384Z,32.62
2019-05-11T10:38:10.814Z,32.57
2019-05-11T10:40:41.649Z,33.12
2019-05-11T10:43:13.668Z,33.74
2019-05-11T10:45:44.100Z,34.47
2019-05-11T10:48:14.591Z,35.05
2019-05-11T10:50:45.107Z,35.34
2019-05-11T10:53:15.501Z,35.92
2019-05-11T10:55:47.941Z,36.02
2019-05-11T10:58:38.009Z,36.54
2019-05-11T11:01:20.415Z,36.80
2019-05-11T11:03:50.880Z,36.77
2019-05-11T11:06:21.292Z,37.35
2019-05-11T11:08:51.673Z,37.23
2019-05-11T11:11:41.467Z,37.38
2019-05-11T11:14:31.249Z,37.92
2019-05-11T11:17:01.660Z,38.97
2019-05-11T11:19:51.457Z,40.94
2019-05-11T11:22:36.203Z,42.93
2019-05-11T11:25:13.557Z,43.63
2019-05-11T11:27:44.044Z,44.76
2019-05-11T11:30:14.482Z,45.98
2019-05-11T11:32:45.034Z,45.37
2019-05-11T11:35:15.398Z,44.38
2019-05-11T11:37:47.724Z,44.85
2019-05-11T11:40:38.692Z,44.82
2019-05-11T11:43:20.046Z,44.09
2019-05-11T11:45:50.447Z,43.72
2019-05-11T11:48:40.249Z,43.43
2019-05-11T11:51:30.109Z,42.52
2019-05-11T11:54:19.865Z,42.04
2019-05-11T11:56:50.307Z,41.23
2019-05-11T11:59:40.060Z,40.53
2019-05-11T12:02:10.465Z,39.21
2019-05-11T12:05:00.191Z,39.45
2019-05-11T12:07:30.571Z,39.18
2019-05-11T12:13:22.751Z,39.07
2019-05-11T12:16:12.513Z,38.38
2019-05-11T12:18:42.980Z,37.61
2019-05-11T12:21:13.363Z,38.07
2019-05-11T12:23:43.750Z,38.35
2019-05-11T12:26:14.135Z,38.22
2019-05-11T12:29:03.901Z,38.05
2019-05-11T12:31:34.246Z,38.22
2019-05-11T12:34:04.651Z,37.75
2019-05-11T12:36:35.108Z,36.92
2019-05-11T12:39:08.452Z,36.88
2019-05-11T12:41:39.030Z,36.10
2019-05-11T12:44:28.855Z,34.94
2019-05-11T12:46:59.273Z,34.37
2019-05-11T12:49:29.656Z,34.06
2019-05-11T12:52:00.111Z,34.66
2019-05-11T12:54:33.535Z,34.68
2019-05-11T12:57:13.477Z,35.25
2019-05-11T12:59:43.894Z,36.29
2019-05-11T13:02:14.275Z,36.77
2019-05-11T13:04:47.720Z,36.74
2019-05-11T13:07:39.213Z,35.67
2019-05-11T13:10:21.450Z,34.84
2019-05-11T13:12:51.820Z,34.74
2019-05-11T13:15:22.241Z,35.35
2019-05-11T13:17:52.633Z,35.98
2019-05-11T13:20:23.057Z,35.44
2019-05-11T13:22:53.419Z,34.74
2019-05-11T13:25:23.805Z,34.55
2019-05-11T13:28:14.459Z,33.91
2019-05-11T13:30:44.939Z,33.78
2019-05-11T13:33:19.047Z,33.45
2019-05-11T13:35:59.911Z,31.77
2019-05-11T13:38:49.670Z,30.97
2019-05-11T13:41:21.838Z,30.85
2019-05-11T13:43:52.245Z,30.52
2019-05-11T13:46:22.637Z,29.74
2019-05-11T13:49:12.404Z,29.96
2019-05-11T13:51:42.797Z,30.24
2019-05-11T13:54:32.593Z,30.06
2019-05-11T13:57:02.983Z,30.07
2019-05-11T13:59:52.758Z,29.68
2019-05-11T14:02:23.163Z,30.08
2019-05-11T14:04:53.564Z,30.12
2019-05-11T14:07:23.938Z,29.70
2019-05-11T14:09:54.462Z,29.25
2019-05-11T14:12:43.926Z,28.42
2019-05-11T14:15:14.376Z,28.60
2019-05-11T14:17:44.733Z,28.74
2019-05-11T14:20:34.538Z,29.98
2019-05-11T14:23:04.886Z,31.19
2019-05-11T14:25:54.724Z,31.37
2019-05-11T14:28:25.271Z,30.69
2019-05-11T14:30:57.738Z,28.62
2019-05-11T14:33:38.690Z,28.25
2019-05-11T14:36:09.347Z,28.44
2019-05-11T14:38:39.780Z,27.98
2019-05-11T14:41:29.583Z,27.30
2019-05-11T14:43:59.955Z,28.09
2019-05-11T14:46:30.433Z,28.50
2019-05-11T14:49:00.830Z,27.80
2019-05-11T14:51:32.925Z,27.90
2019-05-11T14:54:03.328Z,27.45
2019-05-11T14:56:53.112Z,26.63
2019-05-11T14:59:23.491Z,26.08
2019-05-11T15:02:32.162Z,24.60
2019-05-11T15:05:02.509Z,22.53
2019-05-11T15:07:32.899Z,23.17
2019-05-11T15:10:03.309Z,23.84
2019-05-11T15:12:53.130Z,23.95
2019-05-11T15:15:23.502Z,24.87
2019-05-11T15:17:53.953Z,25.49
2019-05-11T15:20:28.022Z,25.92
2019-05-11T15:23:08.992Z,25.92
2019-05-11T15:28:55.378Z,28.72
2019-05-11T15:31:45.149Z,30.36
2019-05-11T15:34:34.985Z,30.68
2019-05-11T15:37:24.780Z,31.87
2019-05-11T15:40:11.672Z,32.82
2019-05-11T15:43:01.424Z,33.21
2019-05-11T15:45:51.226Z,34.09
2019-05-11T15:48:55.725Z,35.04
2019-05-11T15:51:23.906Z,36.00
2019-05-11T15:54:13.688Z,36.67
2019-05-11T15:57:03.493Z,36.80
2019-05-11T15:59:53.281Z,36.98
2019-05-11T16:02:43.086Z,37.47
2019-05-11T16:05:32.909Z,38.05
2019-05-11T16:08:22.736Z,38.48
2019-05-11T16:11:12.520Z,39.29
2019-05-11T16:14:02.333Z,39.70
2019-05-11T16:16:52.107Z,40.40
2019-05-11T16:19:41.962Z,40.43
2019-05-11T16:22:31.755Z,40.29
2019-05-11T16:25:21.564Z,40.12
2019-05-11T16:27:52.055Z,40.51
2019-05-11T16:30:41.884Z,39.94
2019-05-11T16:33:32.651Z,38.53
2019-05-11T16:36:22.466Z,36.57
2019-05-11T16:39:12.245Z,35.22
2019-05-11T16:42:02.088Z,34.42
2019-05-11T16:44:51.882Z,31.75
2019-05-11T16:47:22.316Z,28.90
2019-05-11T16:50:12.127Z,27.02
2019-05-11T16:53:01.930Z,26.23
2019-05-11T16:55:51.713Z,27.32
2019-05-11T16:58:41.482Z,29.49
2019-05-11T17:01:31.217Z,31.41
2019-05-11T17:04:21.198Z,33.06
2019-05-11T17:06:51.590Z,34.82
2019-05-11T17:09:41.393Z,35.14
2019-05-11T17:12:31.142Z,35.57
2019-05-11T17:15:21.076Z,36.44
2019-05-11T17:18:10.897Z,37.92
2019-05-11T17:21:00.839Z,39.64
2019-05-11T17:23:50.626Z,41.29
2019-05-11T17:26:40.454Z,42.38
2019-05-11T17:29:10.867Z,43.72
2019-05-11T17:32:00.797Z,44.59
2019-05-11T17:34:51.168Z,45.03
2019-05-11T17:37:41.219Z,45.74
2019-05-11T17:40:31.037Z,46.26
2019-05-11T17:43:20.881Z,46.94
2019-05-11T17:46:10.754Z,47.82
2019-05-11T17:49:00.601Z,48.68
2019-05-11T17:51:52.150Z,49.27
2019-05-11T17:54:33.574Z,50.20
2019-05-11T17:57:23.398Z,50.80
2019-05-11T18:00:13.288Z,52.42
2019-05-11T18:03:03.212Z,53.15
2019-05-11T18:05:33.750Z,53.52
2019-05-11T18:08:23.496Z,53.72
2019-05-11T18:11:13.481Z,54.18
2019-05-11T18:14:03.232Z,55.88
2019-05-11T18:16:34.322Z,57.58
2019-05-11T18:19:24.093Z,58.27
2019-05-11T18:21:54.536Z,63.14
2019-05-11T18:24:28.512Z,66.82
2019-05-11T18:27:09.987Z,70.90
2019-05-11T18:29:59.749Z,76.02
2019-05-11T18:32:49.605Z,78.88
2019-05-11T18:35:39.392Z,80.92
2019-05-11T18:38:29.218Z,81.55
2019-05-11T18:41:18.989Z,83.38
2019-05-11T18:44:08.882Z,85.05
2019-05-11T18:46:59.257Z,85.28
2019-05-11T18:49:42.042Z,85.49
2019-05-11T18:52:32.896Z,86.61
2019-05-11T18:55:22.849Z,85.78
2019-05-11T18:58:13.017Z,87.09
2019-05-11T19:01:03.068Z,86.92
2019-05-11T19:03:52.909Z,87.24
2019-05-11T19:06:42.724Z,86.95
2019-05-11T19:09:32.532Z,87.90
2019-05-11T19:12:22.579Z,87.95
2019-05-11T19:15:12.376Z,87.98
2019-05-11T19:18:02.350Z,87.42
2019-05-11T19:20:52.152Z,88.65
2019-05-11T19:23:41.995Z,89.93
2019-05-11T19:26:31.875Z,92.03
2019-05-11T19:29:21.687Z,91.90
2019-05-11T19:31:53.781Z,91.94
2019-05-11T19:34:43.564Z,92.14
2019-05-11T19:37:33.402Z,92.92
2019-05-11T19:40:23.201Z,93.57
2019-05-11T19:43:13.015Z,93.85
2019-05-11T19:46:03.785Z,95.20
2019-05-11T19:48:53.604Z,96.42
2019-05-11T19:51:43.429Z,96.61
2019-05-11T19:54:33.195Z,96.54
2019-05-11T19:57:22.959Z,97.15
2019-05-11T20:00:12.860Z,97.65
2019-05-11T20:02:43.267Z,97.73
2019-05-11T20:05:33.068Z,97.10
2019-05-11T20:08:22.898Z,97.97
2019-05-11T20:11:12.788Z,97.31
2019-05-11T20:14:02.621Z,98.02
2019-05-11T20:16:52.447Z,98.43
2019-05-11T20:19:42.234Z,98.76
2019-05-11T20:22:32.023Z,99.05
2019-05-11T20:25:02.408Z,99.11
2019-05-11T20:27:52.255Z,99.27
2019-05-11T20:30:42.164Z,98.95
2019-05-11T20:33:31.961Z,98.81
2019-05-11T20:36:21.744Z,98.46
2019-05-11T20:38:52.320Z,98.83
2019-05-11T20:41:42.104Z,99.02
2019-05-11T20:44:31.933Z,99.81
2019-05-11T20:47:21.677Z,99.97
2019-05-11T20:49:52.132Z,99.78
2019-05-11T20:55:38.856Z,100.00
2019-05-11T21:01:13.064Z,99.28
2019-05-11T21:04:02.851Z,98.60
2019-05-11T21:06:52.719Z,99.19
2019-05-11T21:09:42.542Z,98.68
2019-05-11T21:12:32.360Z,98.98
2019-05-11T21:15:22.166Z,97.91
2019-05-11T21:17:52.639Z,97.90
2019-05-11T21:20:42.369Z,98.14
2019-05-11T21:23:32.166Z,97.99
2019-05-11T21:26:21.950Z,97.85
2019-05-11T21:28:52.422Z,98.88
2019-05-11T21:31:42.208Z,98.84
2019-05-11T21:34:32.104Z,98.31
2019-05-11T21:37:21.870Z,97.11
2019-05-11T21:43:14.754Z,97.08
2019-05-11T21:46:04.502Z,96.57
2019-05-11T21:48:54.291Z,96.79
2019-05-11T21:51:44.065Z,96.93
2019-05-11T21:54:33.878Z,97.43
2019-05-11T21:57:23.679Z,97.18
2019-05-11T22:03:35.631Z,96.82
2019-05-11T22:06:25.384Z,96.56
2019-05-11T22:09:15.163Z,95.88
2019-05-11T22:12:04.936Z,95.53
2019-05-11T22:14:54.760Z,94.50
2019-05-11T22:17:44.520Z,94.02
2019-05-11T22:20:34.386Z,93.67
2019-05-11T22:23:24.099Z,94.11
2019-05-11T22:26:14.688Z,93.70
2019-05-11T22:29:07.444Z,93.74
2019-05-11T22:31:42.849Z,93.46
2019-05-11T22:34:13.267Z,93.51
2019-05-11T22:37:03.045Z,93.04
2019-05-11T22:39:52.819Z,92.67
2019-05-11T22:42:42.639Z,93.15
2019-05-11T22:45:32.359Z,92.32
2019-05-11T22:48:22.216Z,92.91
2019-05-11T22:50:52.657Z,93.45
2019-05-11T22:53:47.104Z,94.26
2019-05-11T22:56:25.244Z,93.76
2019-05-11T22:59:15.019Z,92.23
2019-05-11T23:01:45.423Z,91.96
2019-05-11T23:04:19.645Z,92.24
2019-05-11T23:07:07.973Z,92.47
2019-05-11T23:09:50.881Z,91.57
2019-05-11T23:12:40.671Z,91.04
2019-05-11T23:15:30.464Z,91.32
2019-05-11T23:18:00.811Z,91.42
2019-05-11T23:20:31.189Z,90.75
2019-05-11T23:23:20.947Z,91.59
2019-05-11T23:26:10.729Z,90.97
2019-05-11T23:29:00.492Z,90.86
2019-05-11T23:31:50.266Z,89.96
2019-05-11T23:34:40.042Z,90.15
2019-05-11T23:37:29.812Z,89.02
2019-05-11T23:43:22.384Z,89.15
2019-05-11T23:45:54.363Z,88.86
2019-05-11T23:48:44.175Z,88.65
2019-05-11T23:51:33.912Z,88.41
2019-05-11T23:54:23.846Z,89.19
2019-05-11T23:57:13.574Z,89.60
2019-05-11T23:59:43.950Z,90.06
